Time;durP1;ratioP1;P1;durP2;ratioP2;P2;SDS_P1;SDS_P2;PMS_P1;PMS_P2;Temp;Humidity;BMP_temperature;BMP_pressure;BME280_temperature;BME280_humidity;BME280_pressure;Samples;Min_cycle;Max_cycle;Signal;HPM_P1;HPM_P2
2022/05/01 00:02:15;;;;;;;48.77;23.20;;;10.40;91.10;;;;;;5036449;28;20420;-78
2022/05/01 00:04:40;;;;;;;55.10;24.90;;;10.40;91.30;;;;;;5018749;28;20205;-79
2022/05/01 00:07:10;;;;;;;52.23;22.93;;;10.30;91.30;;;;;;5019652;28;20252;-77
2022/05/01 00:09:37;;;;;;;51.00;22.43;;;10.30;91.30;;;;;;5019570;28;20206;-78
2022/05/01 00:12:03;;;;;;;49.27;22.83;;;10.30;91.50;;;;;;5015480;28;20804;-80
2022/05/01 00:14:30;;;;;;;52.97;24.33;;;10.30;91.60;;;;;;5016778;28;20460;-80
2022/05/01 00:16:56;;;;;;;60.50;26.30;;;10.30;91.70;;;;;;5015428;28;20504;-80
2022/05/01 00:19:21;;;;;;;57.33;25.80;;;10.30;91.70;;;;;;5015221;28;20213;-78
2022/05/01 00:21:47;;;;;;;57.00;25.83;;;10.20;91.90;;;;;;5029937;28;20197;-78
2022/05/01 00:24:13;;;;;;;57.63;26.10;;;10.20;92.00;;;;;;5017362;28;20261;-79
2022/05/01 00:26:38;;;;;;;61.30;27.53;;;10.10;92.20;;;;;;5035125;28;20233;-77
2022/05/01 00:29:06;;;;;;;56.47;24.70;;;10.10;92.40;;;;;;5029124;28;20213;-77
2022/05/01 00:31:32;;;;;;;61.03;25.63;;;10.20;92.50;;;;;;5026384;28;20213;-76
2022/05/01 00:36:41;;;;;;;57.60;25.73;;;10.20;92.30;;;;;;5019134;28;20431;-74
2022/05/01 00:39:08;;;;;;;63.13;27.27;;;10.20;92.20;;;;;;5020960;28;20456;-75
2022/05/01 00:41:39;;;;;;;59.77;26.97;;;10.10;92.30;;;;;;5024062;28;20194;-76
2022/05/01 00:44:10;;;;;;;56.63;26.13;;;10.10;92.40;;;;;;5018810;28;20398;-77
2022/05/01 00:46:38;;;;;;;56.77;24.70;;;10.10;92.50;;;;;;5030598;28;20423;-80
2022/05/01 00:49:08;;;;;;;65.20;25.87;;;10.20;92.40;;;;;;5023849;28;20440;-78
2022/05/01 00:51:57;;;;;;;62.37;25.80;;;10.20;92.00;;;;;;5031451;28;20491;-79
2022/05/01 00:54:25;;;;;;;55.73;24.13;;;10.20;92.20;;;;;;5023796;28;20420;-76
2022/05/01 00:56:53;;;;;;;60.87;26.40;;;10.10;92.10;;;;;;5022732;28;20479;-76
2022/05/01 00:59:20;;;;;;;57.87;26.57;;;10.20;92.20;;;;;;5028179;28;20470;-77
2022/05/01 01:01:49;;;;;;;52.33;25.40;;;10.20;92.20;;;;;;5018623;28;20440;-78
2022/05/01 01:04:15;;;;;;;62.70;25.57;;;10.10;92.20;;;;;;5020160;28;20448;-78
2022/05/01 01:06:42;;;;;;;63.50;27.50;;;10.20;92.30;;;;;;5013886;28;20880;-76
2022/05/01 01:09:09;;;;;;;60.07;26.47;;;10.30;92.00;;;;;;5017513;28;20269;-78
2022/05/01 01:11:36;;;;;;;58.30;25.90;;;10.20;92.00;;;;;;5014926;28;20461;-76
2022/05/01 01:14:05;;;;;;;53.00;24.30;;;10.30;92.00;;;;;;5026116;28;20428;-78
2022/05/01 01:16:32;;;;;;;53.07;21.40;;;10.30;91.80;;;;;;5021529;28;21165;-76
2022/05/01 01:18:58;;;;;;;48.53;22.67;;;10.30;91.40;;;;;;5028649;28;20478;-77
2022/05/01 01:21:24;;;;;;;49.23;23.20;;;10.20;91.20;;;;;;5026523;28;20452;-78
2022/05/01 01:23:52;;;;;;;53.30;24.90;;;10.30;91.30;;;;;;5031139;28;20421;-79
2022/05/01 01:26:18;;;;;;;53.10;25.27;;;10.20;91.20;;;;;;5021969;28;20193;-78
2022/05/01 01:28:44;;;;;;;60.33;26.10;;;10.10;91.50;;;;;;5026546;28;20557;-78
2022/05/01 01:34:03;;;;;;;60.63;24.43;;;10.00;91.70;;;;;;5012908;28;20520;-75
2022/05/01 01:36:32;;;;;;;54.53;24.57;;;10.00;91.90;;;;;;5017155;28;21060;-75
2022/05/01 01:38:59;;;;;;;60.47;25.10;;;10.00;91.90;;;;;;5018761;28;20456;-78
2022/05/01 01:41:28;;;;;;;49.90;23.20;;;9.90;91.80;;;;;;5016589;28;20802;-79
2022/05/01 01:43:55;;;;;;;58.07;23.90;;;9.90;92.00;;;;;;5016496;28;20420;-77
2022/05/01 01:46:21;;;;;;;60.83;27.00;;;10.00;91.90;;;;;;5019962;28;20415;-78
2022/05/01 01:48:47;;;;;;;52.23;23.77;;;9.90;91.90;;;;;;5016558;28;20976;-79
2022/05/01 01:51:13;;;;;;;55.20;23.93;;;10.00;92.00;;;;;;5021154;28;20511;-78
2022/05/01 01:53:40;;;;;;;57.03;25.63;;;10.00;92.00;;;;;;5014235;28;20774;-78
2022/05/01 01:56:08;;;;;;;56.33;24.17;;;10.00;91.70;;;;;;5014835;28;20463;-76
2022/05/01 01:58:34;;;;;;;56.37;24.07;;;10.00;91.50;;;;;;5016629;28;20447;-78
2022/05/01 02:01:00;;;;;;;60.20;25.00;;;10.00;91.50;;;;;;5013714;28;20428;-78
2022/05/01 02:03:27;;;;;;;51.73;24.20;;;10.00;91.60;;;;;;5017331;28;20818;-77
2022/05/01 02:05:52;;;;;;;60.17;24.40;;;10.10;91.60;;;;;;5017047;28;20416;-78
2022/05/01 02:08:19;;;;;;;53.57;22.80;;;10.20;91.40;;;;;;5019962;28;20436;-76
2022/05/01 02:10:46;;;;;;;57.00;25.20;;;10.30;91.20;;;;;;5018466;28;20628;-77
2022/05/01 02:13:13;;;;;;;61.83;25.27;;;10.30;91.30;;;;;;5020513;28;20429;-77
2022/05/01 02:15:39;;;;;;;55.13;25.10;;;10.30;91.10;;;;;;5021535;28;20525;-79
2022/05/01 02:18:06;;;;;;;50.73;22.80;;;10.30;90.70;;;;;;5015220;28;20425;-77
2022/05/01 02:23:18;;;;;;;55.80;25.07;;;10.10;91.00;;;;;;5022284;28;20447;-79
2022/05/01 02:25:44;;;;;;;51.53;23.83;;;10.00;91.20;;;;;;5015686;28;20428;-78
2022/05/01 02:28:10;;;;;;;47.53;22.97;;;10.00;91.40;;;;;;5023479;28;20493;-76
2022/05/01 02:30:37;;;;;;;50.80;23.33;;;10.00;91.50;;;;;;5019775;28;20193;-79
2022/05/01 02:33:03;;;;;;;56.40;24.23;;;10.10;91.50;;;;;;5018126;28;20436;-79
2022/05/01 02:35:29;;;;;;;55.17;23.10;;;10.20;91.30;;;;;;5020052;28;20463;-76
2022/05/01 02:37:55;;;;;;;53.30;23.43;;;10.10;91.50;;;;;;5024695;28;20425;-79
2022/05/01 02:40:20;;;;;;;53.77;24.67;;;10.10;91.40;;;;;;5026372;28;20220;-75
2022/05/01 02:42:46;;;;;;;52.50;24.60;;;10.10;91.50;;;;;;5014460;28;20185;-78
2022/05/01 02:45:13;;;;;;;48.97;23.30;;;10.00;91.50;;;;;;5017031;28;20191;-79
2022/05/01 02:47:38;;;;;;;47.47;22.43;;;10.00;91.60;;;;;;5019837;28;20244;-80
2022/05/01 02:50:04;;;;;;;49.37;23.60;;;10.00;91.60;;;;;;5016637;28;20484;-77
2022/05/01 02:52:30;;;;;;;45.77;22.10;;;9.90;91.50;;;;;;5024542;28;20568;-79
2022/05/01 02:54:56;;;;;;;59.47;24.10;;;9.80;91.60;;;;;;5017835;28;20548;-79
2022/05/01 02:57:22;;;;;;;60.53;24.10;;;9.80;91.90;;;;;;5020416;28;20478;-76
2022/05/01 02:59:48;;;;;;;62.13;25.20;;;9.80;92.00;;;;;;5030370;28;20582;-78
2022/05/01 03:02:15;;;;;;;47.67;23.57;;;9.80;91.80;;;;;;5025560;28;20182;-79
2022/05/01 03:04:41;;;;;;;59.60;23.73;;;9.80;91.90;;;;;;5023626;28;20425;-79
2022/05/01 03:07:12;;;;;;;60.13;23.27;;;9.70;92.00;;;;;;5030082;28;20459;-77
2022/05/01 03:09:38;;;;;;;58.83;25.27;;;9.80;92.10;;;;;;5024385;28;20443;-80
2022/05/01 03:12:05;;;;;;;57.20;23.33;;;9.90;91.90;;;;;;5020089;28;20440;-79
2022/05/01 03:14:31;;;;;;;61.17;25.53;;;9.90;91.70;;;;;;5019157;28;20435;-79
2022/05/01 03:16:57;;;;;;;69.60;26.00;;;9.80;91.70;;;;;;5017619;28;20432;-78
2022/05/01 03:22:10;;;;;;;58.97;25.53;;;9.80;91.90;;;;;;5019415;28;20478;-79
2022/05/01 03:24:38;;;;;;;59.00;25.37;;;9.80;91.90;;;;;;5014852;28;20427;-78
2022/05/01 03:27:05;;;;;;;62.60;25.20;;;9.80;92.00;;;;;;5018839;28;20471;-79
2022/05/01 03:29:31;;;;;;;59.03;24.60;;;9.90;91.90;;;;;;5015622;28;20442;-76
2022/05/01 03:31:56;;;;;;;54.17;22.20;;;9.90;91.80;;;;;;5014091;28;20409;-80
2022/05/01 03:34:26;;;;;;;61.30;25.80;;;10.00;91.60;;;;;;5017085;28;20189;-80
2022/05/01 03:36:55;;;;;;;53.63;24.60;;;10.00;91.30;;;;;;5014480;28;20265;-80
2022/05/01 03:39:21;;;;;;;61.17;24.73;;;10.00;91.30;;;;;;5017659;28;20453;-76
2022/05/01 03:41:47;;;;;;;56.77;23.33;;;10.00;91.20;;;;;;5011507;28;20935;-77
2022/05/01 03:44:13;;;;;;;59.43;25.57;;;10.00;91.30;;;;;;5016424;28;20437;-76
2022/05/01 03:46:39;;;;;;;58.27;23.50;;;10.00;91.40;;;;;;5022893;28;20424;-76
2022/05/01 03:49:06;;;;;;;62.47;25.50;;;10.00;91.30;;;;;;5015473;28;20204;-77
2022/05/01 03:51:33;;;;;;;59.83;25.97;;;10.00;91.50;;;;;;5025073;28;20184;-77
2022/05/01 03:54:03;;;;;;;56.67;24.17;;;10.10;91.50;;;;;;5015366;28;20825;-77
2022/05/01 03:56:33;;;;;;;67.43;27.57;;;10.10;91.40;;;;;;5015671;28;20457;-78
2022/05/01 03:58:59;;;;;;;67.47;27.23;;;10.10;91.20;;;;;;5020288;28;20456;-75
2022/05/01 04:01:26;;;;;;;58.33;27.03;;;10.10;91.00;;;;;;5026049;28;20447;-78
2022/05/01 04:03:53;;;;;;;49.87;23.60;;;10.10;91.00;;;;;;5014399;28;20405;-76
2022/05/01 04:06:19;;;;;;;70.07;27.87;;;10.00;91.00;;;;;;5017196;28;20452;-77
2022/05/01 04:08:45;;;;;;;56.63;24.70;;;10.00;91.20;;;;;;5019891;28;20469;-76
2022/05/01 04:11:11;;;;;;;57.67;25.53;;;10.00;91.30;;;;;;5018428;28;20524;-76
2022/05/01 04:13:37;;;;;;;53.07;24.00;;;10.00;91.40;;;;;;5014277;28;20432;-77
2022/05/01 04:16:03;;;;;;;56.77;25.60;;;10.10;91.30;;;;;;5013664;28;20845;-77
2022/05/01 04:18:31;;;;;;;56.97;24.73;;;10.10;91.20;;;;;;5013989;28;20205;-81
2022/05/01 04:20:58;;;;;;;57.33;25.03;;;10.10;91.20;;;;;;5015995;28;20417;-75
2022/05/01 04:23:24;;;;;;;59.40;25.33;;;10.10;91.20;;;;;;5021943;28;20412;-77
2022/05/01 04:25:50;;;;;;;59.87;26.03;;;10.10;91.00;;;;;;5032409;28;20420;-76
2022/05/01 04:28:16;;;;;;;56.00;24.43;;;10.10;91.00;;;;;;5024854;28;20431;-77
2022/05/01 04:30:42;;;;;;;56.33;25.77;;;10.10;91.10;;;;;;5017428;28;20609;-78
2022/05/01 04:33:13;;;;;;;54.47;24.67;;;10.10;91.10;;;;;;5016631;28;20448;-77
2022/05/01 04:35:42;;;;;;;55.33;24.47;;;10.10;90.90;;;;;;5027179;28;20220;-78
2022/05/01 04:38:17;;;;;;;55.73;24.43;;;10.10;91.00;;;;;;5030848;28;20961;-78
2022/05/01 04:40:45;;;;;;;47.87;22.30;;;10.10;90.70;;;;;;5021181;28;20817;-76
2022/05/01 04:43:13;;;;;;;51.83;22.00;;;10.00;90.80;;;;;;5012457;28;20452;-76
2022/05/01 04:45:41;;;;;;;53.93;22.70;;;10.00;90.80;;;;;;5017295;28;20983;-78
2022/05/01 04:48:08;;;;;;;52.83;24.13;;;9.90;90.90;;;;;;5021675;28;20475;-77
2022/05/01 04:50:35;;;;;;;65.03;26.30;;;10.00;91.00;;;;;;5013892;28;20451;-76
2022/05/01 04:53:02;;;;;;;55.33;23.57;;;9.90;90.90;;;;;;5013608;28;20515;-76
2022/05/01 04:55:30;;;;;;;60.63;23.43;;;10.00;91.10;;;;;;5014748;28;20463;-77
2022/05/01 04:57:57;;;;;;;54.80;23.77;;;10.00;90.90;;;;;;5003875;28;20429;-77
2022/05/01 05:00:23;;;;;;;51.67;22.87;;;10.10;90.90;;;;;;5019622;28;20951;-77
2022/05/01 05:02:53;;;;;;;55.07;24.27;;;10.10;90.80;;;;;;5013260;28;20923;-77
2022/05/01 05:05:21;;;;;;;52.10;23.90;;;10.00;90.60;;;;;;5021119;28;20734;-76
2022/05/01 05:07:47;;;;;;;50.70;25.50;;;9.90;90.90;;;;;;5018081;28;20539;-78
2022/05/01 05:10:14;;;;;;;47.60;23.50;;;9.90;91.00;;;;;;5016703;28;20456;-75
2022/05/01 05:12:42;;;;;;;46.97;22.33;;;9.80;91.10;;;;;;5012101;28;20422;-77
2022/05/01 05:15:10;;;;;;;52.33;23.57;;;9.90;91.20;;;;;;5017208;28;20462;-78
2022/05/01 05:17:37;;;;;;;50.93;22.37;;;9.80;91.20;;;;;;5014318;28;20483;-77
2022/05/01 05:20:04;;;;;;;55.53;23.20;;;9.80;91.40;;;;;;5015888;28;20444;-78
2022/05/01 05:22:31;;;;;;;55.80;24.73;;;9.90;91.60;;;;;;5015577;28;20423;-78
2022/05/01 05:24:57;;;;;;;48.40;23.33;;;9.90;91.50;;;;;;5017405;28;20935;-78
2022/05/01 05:27:25;;;;;;;56.40;23.13;;;9.90;91.40;;;;;;5015628;28;20416;-79
2022/05/01 05:29:56;;;;;;;62.60;26.43;;;9.90;91.50;;;;;;5017923;28;20812;-80
2022/05/01 05:32:23;;;;;;;57.47;24.27;;;9.90;91.30;;;;;;5011757;28;20449;-80
2022/05/01 05:34:49;;;;;;;54.93;23.20;;;9.80;91.60;;;;;;5018747;28;20467;-80
2022/05/01 05:37:16;;;;;;;54.83;23.67;;;9.80;91.70;;;;;;5012284;28;20508;-78
2022/05/01 05:39:42;;;;;;;54.37;23.87;;;9.90;91.70;;;;;;5022518;28;20710;-80
2022/05/01 05:42:08;;;;;;;55.83;25.27;;;9.90;91.60;;;;;;5011850;28;20503;-79
2022/05/01 05:44:34;;;;;;;53.47;23.67;;;9.90;91.50;;;;;;5014788;28;20728;-80
2022/05/01 05:46:59;;;;;;;54.03;23.83;;;9.90;91.40;;;;;;5011694;28;20425;-79
2022/05/01 05:49:25;;;;;;;49.43;24.30;;;9.80;91.30;;;;;;5018366;28;20205;-77
2022/05/01 05:51:51;;;;;;;56.10;24.67;;;9.80;91.50;;;;;;5012868;28;20600;-79
2022/05/01 05:54:17;;;;;;;58.73;24.70;;;9.90;91.50;;;;;;5015258;28;20182;-79
2022/05/01 05:56:42;;;;;;;58.93;25.00;;;10.00;91.50;;;;;;5012545;28;20218;-80
2022/05/01 05:59:08;;;;;;;59.03;26.43;;;10.00;90.90;;;;;;5015401;28;20198;-77
2022/05/01 06:01:34;;;;;;;51.37;22.37;;;10.00;91.00;;;;;;5019328;28;20174;-80
2022/05/01 06:04:01;;;;;;;49.07;22.20;;;10.10;91.10;;;;;;5017155;28;20558;-77
2022/05/01 06:06:27;;;;;;;44.43;20.10;;;10.20;91.00;;;;;;5020015;28;20417;-79
2022/05/01 06:08:53;;;;;;;63.23;23.70;;;10.30;90.80;;;;;;5024728;28;20903;-79
2022/05/01 06:11:18;;;;;;;52.23;23.53;;;10.40;90.20;;;;;;5021306;28;20277;-79
2022/05/01 06:13:44;;;;;;;45.57;20.90;;;10.40;90.00;;;;;;5023252;28;20452;-80
2022/05/01 06:16:10;;;;;;;50.87;22.57;;;10.40;90.10;;;;;;5026223;28;20328;-79
2022/05/01 06:18:36;;;;;;;52.40;24.30;;;10.40;90.10;;;;;;5022320;28;20471;-80
2022/05/01 06:21:02;;;;;;;47.60;22.10;;;10.50;89.90;;;;;;5021585;28;20416;-79
2022/05/01 06:23:28;;;;;;;48.13;21.87;;;10.40;90.00;;;;;;5027832;28;20194;-78
2022/05/01 06:25:54;;;;;;;56.80;22.20;;;10.50;90.10;;;;;;5022580;28;20426;-78
2022/05/01 06:28:20;;;;;;;50.63;23.20;;;10.60;89.70;;;;;;5024049;28;20186;-78
2022/05/01 06:30:47;;;;;;;49.20;20.80;;;10.80;89.60;;;;;;5035795;28;20419;-79
2022/05/01 06:33:16;;;;;;;51.20;22.30;;;10.90;89.30;;;;;;5025255;28;20312;-81
2022/05/01 06:35:43;;;;;;;52.90;23.10;;;11.00;88.60;;;;;;5024929;28;20480;-79
2022/05/01 06:38:09;;;;;;;47.43;21.23;;;11.00;87.60;;;;;;5020043;28;20520;-79
2022/05/01 06:40:38;;;;;;;43.50;21.37;;;10.90;87.60;;;;;;5016566;28;20445;-77
2022/05/01 06:43:06;;;;;;;45.47;22.00;;;10.90;87.70;;;;;;5013705;28;20420;-79
2022/05/01 06:45:32;;;;;;;46.57;21.57;;;10.90;87.40;;;;;;5017976;28;20463;-79
2022/05/01 06:47:57;;;;;;;49.23;22.30;;;10.80;87.80;;;;;;5017468;28;20425;-79
2022/05/01 06:50:23;;;;;;;48.03;22.30;;;10.90;88.10;;;;;;5018700;28;20463;-78
2022/05/01 06:52:49;;;;;;;49.33;21.50;;;11.00;87.60;;;;;;5012446;28;20194;-80
2022/05/01 06:55:18;;;;;;;48.67;22.40;;;11.10;87.30;;;;;;5019837;28;20214;-80
2022/05/01 06:57:44;;;;;;;42.60;20.57;;;11.20;87.00;;;;;;5017881;28;20193;-76
2022/05/01 07:00:11;;;;;;;56.63;22.60;;;11.30;86.80;;;;;;5021622;28;20459;-75
2022/05/01 07:02:47;;;;;;;41.63;19.90;;;11.40;86.30;;;;;;5022492;28;20444;-80
2022/05/01 07:05:13;;;;;;;51.77;22.67;;;11.50;86.20;;;;;;5022677;28;20434;-77
2022/05/01 07:07:39;;;;;;;45.63;22.00;;;11.50;85.60;;;;;;5019120;28;20445;-79
2022/05/01 07:10:06;;;;;;;48.33;21.50;;;11.40;85.50;;;;;;5021679;28;20904;-80
2022/05/01 07:12:32;;;;;;;44.83;20.43;;;11.20;86.20;;;;;;5014545;28;20453;-75
2022/05/01 07:14:58;;;;;;;45.43;22.37;;;11.20;86.50;;;;;;5019755;28;20522;-82
2022/05/01 07:17:23;;;;;;;41.40;20.47;;;11.30;86.50;;;;;;5018666;28;20544;-75
2022/05/01 07:19:49;;;;;;;40.17;19.63;;;11.40;86.00;;;;;;5014518;28;20214;-78
2022/05/01 07:22:16;;;;;;;41.03;19.60;;;11.50;85.70;;;;;;5013323;28;20181;-77
2022/05/01 07:24:42;;;;;;;41.07;19.40;;;11.60;85.30;;;;;;5020604;28;20190;-76
2022/05/01 07:27:09;;;;;;;36.50;19.20;;;11.90;84.60;;;;;;5020406;28;20571;-75
2022/05/01 07:29:34;;;;;;;38.17;18.80;;;11.90;83.70;;;;;;5017629;28;20820;-78
2022/05/01 07:32:00;;;;;;;43.30;20.10;;;12.00;83.40;;;;;;5019840;28;20433;-76
2022/05/01 07:34:26;;;;;;;41.97;19.47;;;12.00;83.40;;;;;;5019447;28;20189;-78
2022/05/01 07:36:52;;;;;;;39.60;20.80;;;12.20;83.40;;;;;;5013585;28;20217;-75
2022/05/01 07:39:17;;;;;;;45.83;20.20;;;12.10;82.20;;;;;;5020344;28;20201;-75
2022/05/01 07:41:44;;;;;;;41.17;18.90;;;12.10;82.70;;;;;;5008236;28;20961;-75
2022/05/01 07:44:11;;;;;;;41.57;21.07;;;12.20;82.70;;;;;;5019583;28;20848;-77
2022/05/01 07:46:38;;;;;;;37.13;19.27;;;12.20;82.40;;;;;;5029754;28;20488;-75
2022/05/01 07:49:05;;;;;;;41.27;20.67;;;12.30;81.90;;;;;;5021355;28;20444;-77
2022/05/01 07:51:31;;;;;;;35.57;18.90;;;12.30;81.70;;;;;;5022195;28;20490;-77
2022/05/01 07:53:58;;;;;;;37.30;19.77;;;12.30;81.80;;;;;;5029838;28;20436;-76
2022/05/01 07:56:25;;;;;;;37.70;19.03;;;12.20;81.80;;;;;;5029055;28;20212;-75
2022/05/01 07:58:51;;;;;;;33.97;17.80;;;12.30;81.80;;;;;;5025764;28;20465;-74
2022/05/01 08:01:17;;;;;;;37.17;18.33;;;12.40;82.10;;;;;;5025170;28;20451;-76
2022/05/01 08:06:27;;;;;;;36.77;19.23;;;12.60;80.20;;;;;;5001332;28;20713;-74
2022/05/01 08:08:52;;;;;;;40.13;19.27;;;12.60;80.00;;;;;;5013151;28;20528;-74
2022/05/01 08:11:18;;;;;;;34.20;16.80;;;12.70;80.00;;;;;;5020687;28;20782;-74
2022/05/01 08:13:44;;;;;;;30.23;15.47;;;12.80;79.50;;;;;;5013752;28;20657;-75
2022/05/01 08:16:10;;;;;;;34.53;16.70;;;12.90;79.00;;;;;;5013765;28;20461;-74
2022/05/01 08:21:21;;;;;;;33.23;16.53;;;13.20;78.10;;;;;;5019889;28;20192;-72
2022/05/01 08:23:47;;;;;;;36.47;17.30;;;13.30;77.10;;;;;;5017659;28;20934;-73
2022/05/01 08:26:14;;;;;;;34.07;17.37;;;13.50;76.70;;;;;;5011821;28;20432;-73
2022/05/01 08:28:42;;;;;;;34.97;14.63;;;13.60;76.10;;;;;;5012974;28;20461;-73
2022/05/01 08:31:09;;;;;;;31.67;16.07;;;13.70;74.90;;;;;;5019593;28;20537;-73
2022/05/01 08:33:36;;;;;;;33.60;16.27;;;13.40;75.80;;;;;;5017399;28;20447;-74
2022/05/01 08:36:04;;;;;;;30.40;15.73;;;13.00;76.10;;;;;;5015629;28;20479;-75
2022/05/01 08:38:30;;;;;;;26.43;15.43;;;13.00;76.40;;;;;;5012786;28;20441;-74
2022/05/01 08:40:56;;;;;;;31.87;16.10;;;13.10;76.20;;;;;;5013745;28;20428;-74
2022/05/01 08:43:23;;;;;;;32.93;14.80;;;13.30;76.10;;;;;;5016711;28;20471;-75
2022/05/01 08:46:07;;;;;;;31.80;16.90;;;13.50;76.20;;;;;;5013017;28;20852;-75
2022/05/01 08:48:51;;;;;;;31.17;16.13;;;13.60;75.70;;;;;;5015094;28;20444;-74
2022/05/01 08:51:20;;;;;;;31.63;16.57;;;13.80;75.20;;;;;;5010837;28;20536;-74
2022/05/01 08:53:47;;;;;;;25.00;13.93;;;13.90;73.20;;;;;;5012920;28;20458;-75
2022/05/01 08:56:14;;;;;;;27.20;15.77;;;13.80;73.60;;;;;;5011579;28;20852;-75
2022/05/01 08:58:43;;;;;;;37.07;17.90;;;13.90;73.90;;;;;;5018753;28;20888;-74
2022/05/01 09:01:11;;;;;;;25.47;16.30;;;13.90;73.30;;;;;;5010899;28;20421;-75
2022/05/01 09:03:40;;;;;;;29.50;14.20;;;14.00;73.20;;;;;;5014093;28;20622;-76
2022/05/01 09:06:06;;;;;;;31.17;15.73;;;14.10;72.00;;;;;;5011110;28;20479;-74
2022/05/01 09:08:32;;;;;;;31.27;16.03;;;14.20;72.10;;;;;;5010182;28;20472;-75
2022/05/01 09:12:49;;;;;;;24.90;14.30;;;14.30;71.40;;;;;;5010479;28;20200;-74
2022/05/01 09:13:47;;;;;;;35.63;17.17;;;14.40;71.60;;;;;;5018435;28;20439;-75
2022/05/01 09:16:14;;;;;;;26.57;15.20;;;14.50;69.80;;;;;;5009135;28;20515;-74
2022/05/01 09:18:44;;;;;;;29.30;14.87;;;14.40;70.50;;;;;;5010122;28;21287;-74
2022/05/01 09:21:10;;;;;;;29.77;14.23;;;14.40;70.20;;;;;;5040346;28;20439;-73
2022/05/01 09:23:44;;;;;;;32.10;16.60;;;14.40;70.80;;;;;;5023087;28;20432;-75
2022/05/01 09:26:21;;;;;;;27.20;14.73;;;14.60;70.70;;;;;;5009044;28;20435;-74
2022/05/01 09:28:48;;;;;;;29.67;15.40;;;14.70;70.70;;;;;;5013075;28;20448;-75
2022/05/01 09:31:15;;;;;;;29.77;16.50;;;14.90;71.00;;;;;;5015240;28;20507;-75
2022/05/01 09:33:40;;;;;;;29.97;15.80;;;15.10;69.40;;;;;;5024997;28;21044;-74
2022/05/01 09:36:08;;;;;;;28.90;15.27;;;14.70;70.40;;;;;;5011234;28;20646;-75
2022/05/01 09:38:34;;;;;;;30.73;15.37;;;14.60;70.80;;;;;;5017271;28;20814;-75
2022/05/01 09:41:11;;;;;;;29.60;14.73;;;14.60;70.80;;;;;;5015560;28;20423;-75
2022/05/01 09:43:45;;;;;;;25.13;14.50;;;14.60;71.00;;;;;;5012875;28;20575;-74
2022/05/01 09:46:32;;;;;;;29.50;14.90;;;14.50;69.40;;;;;;5018477;28;20508;-74
2022/05/01 09:49:08;;;;;;;30.97;16.00;;;14.40;70.50;;;;;;5006585;28;20794;-74
2022/05/01 09:51:36;;;;;;;26.90;14.90;;;14.40;71.00;;;;;;5008001;28;20492;-73
2022/05/01 09:54:06;;;;;;;24.73;14.00;;;14.50;70.70;;;;;;5015592;28;20437;-75
2022/05/01 09:56:46;;;;;;;28.10;15.60;;;14.60;70.40;;;;;;5021251;28;20674;-74
2022/05/01 09:59:12;;;;;;;27.93;14.90;;;14.80;70.10;;;;;;5018766;28;20467;-74
2022/05/01 10:01:38;;;;;;;23.77;13.60;;;14.90;69.50;;;;;;5017981;28;20429;-74
2022/05/01 10:04:04;;;;;;;24.43;13.33;;;15.10;68.30;;;;;;5017853;28;20782;-74
2022/05/01 10:06:32;;;;;;;24.83;14.50;;;15.30;67.90;;;;;;5017229;28;20213;-74
2022/05/01 10:08:58;;;;;;;29.00;14.77;;;15.50;66.60;;;;;;5018326;28;20300;-75
2022/05/01 10:11:26;;;;;;;24.77;14.20;;;15.50;66.70;;;;;;5014538;28;20459;-74
2022/05/01 10:13:52;;;;;;;26.33;14.43;;;15.70;66.60;;;;;;5017151;28;20437;-76
2022/05/01 10:16:17;;;;;;;23.13;13.80;;;15.70;66.00;;;;;;5013353;28;20478;-73
2022/05/01 10:18:45;;;;;;;29.30;14.30;;;15.60;66.60;;;;;;5019182;28;20220;-74
2022/05/01 10:21:12;;;;;;;25.47;14.87;;;15.70;65.70;;;;;;5017882;28;20183;-74
2022/05/01 10:23:39;;;;;;;28.73;14.80;;;15.50;65.60;;;;;;5014342;28;20916;-74
2022/05/01 10:26:13;;;;;;;27.23;14.20;;;15.30;66.10;;;;;;5020083;28;21250;-72
2022/05/01 10:28:39;;;;;;;24.10;13.87;;;15.00;67.20;;;;;;5014439;28;20478;-73
2022/05/01 10:34:41;;;;;;;23.80;13.53;;;15.20;67.60;;;;;;5006358;28;20272;-71
2022/05/01 10:37:43;;;;;;;27.43;12.80;;;15.60;66.10;;;;;;5009634;28;20425;-72
2022/05/01 10:40:09;;;;;;;29.90;15.73;;;15.70;65.70;;;;;;5010939;28;20444;-72
2022/05/01 10:42:43;;;;;;;26.73;13.77;;;15.50;65.10;;;;;;5017001;28;20432;-71
2022/05/01 10:45:21;;;;;;;24.40;14.30;;;15.10;65.60;;;;;;5015233;28;20189;-73
2022/05/01 10:47:49;;;;;;;23.53;13.90;;;14.90;66.40;;;;;;5017913;28;20442;-71
2022/05/01 10:50:26;;;;;;;26.17;14.20;;;14.90;66.40;;;;;;5015172;28;20455;-74
2022/05/01 10:53:16;;;;;;;25.70;13.43;;;15.30;66.30;;;;;;5023474;28;20424;-72
2022/05/01 10:55:47;;;;;;;30.13;14.57;;;15.50;65.30;;;;;;5018137;28;20495;-74
2022/05/01 10:58:24;;;;;;;24.90;14.13;;;15.60;65.10;;;;;;5014114;28;21129;-73
2022/05/01 11:00:53;;;;;;;28.60;13.80;;;15.60;65.30;;;;;;5018755;28;20491;-74
2022/05/01 11:03:33;;;;;;;25.60;13.07;;;15.60;64.80;;;;;;5015612;28;20421;-73
2022/05/01 11:06:01;;;;;;;24.33;13.60;;;15.30;65.00;;;;;;5003298;28;20418;-71
2022/05/01 11:08:33;;;;;;;20.90;12.07;;;15.10;65.70;;;;;;5007906;28;20819;-72
2022/05/01 11:11:01;;;;;;;21.13;12.63;;;15.10;65.80;;;;;;5017587;28;20413;-74
2022/05/01 11:13:33;;;;;;;16.40;10.37;;;15.40;65.60;;;;;;5015887;28;20431;-72
2022/05/01 11:16:00;;;;;;;23.30;12.50;;;15.60;64.70;;;;;;5014699;28;20469;-72
2022/05/01 11:18:52;;;;;;;23.83;12.77;;;15.70;63.90;;;;;;5018367;28;20424;-74
2022/05/01 11:21:20;;;;;;;24.97;12.70;;;15.80;63.10;;;;;;5014182;28;20437;-73
2022/05/01 11:24:08;;;;;;;25.33;13.37;;;15.80;62.00;;;;;;5012134;28;20436;-72
2022/05/01 11:26:33;;;;;;;21.43;11.60;;;15.80;62.60;;;;;;5016460;28;20533;-72
2022/05/01 11:29:17;;;;;;;25.77;13.13;;;16.00;62.90;;;;;;5010519;28;21217;-71
2022/05/01 11:31:46;;;;;;;23.63;11.67;;;16.20;61.30;;;;;;5020057;28;20185;-74
2022/05/01 11:34:24;;;;;;;21.43;12.67;;;16.10;61.70;;;;;;5016204;28;20436;-74
2022/05/01 11:37:01;;;;;;;25.40;13.40;;;16.30;62.00;;;;;;5011121;28;20508;-74
2022/05/01 11:39:45;;;;;;;21.17;10.83;;;16.40;61.50;;;;;;5012115;28;20979;-74
2022/05/01 11:42:26;;;;;;;22.30;11.10;;;16.90;59.90;;;;;;5011174;28;20408;-73
2022/05/01 11:44:52;;;;;;;22.03;11.87;;;17.10;58.80;;;;;;5012758;28;20423;-73
2022/05/01 11:47:27;;;;;;;19.97;12.80;;;17.00;58.10;;;;;;5011197;28;20430;-74
2022/05/01 11:49:52;;;;;;;18.33;11.50;;;16.80;58.40;;;;;;5014593;28;20494;-72
2022/05/01 11:52:19;;;;;;;16.70;11.80;;;16.70;59.10;;;;;;5012798;28;20998;-75
2022/05/01 11:54:54;;;;;;;24.60;12.83;;;16.90;59.20;;;;;;5013770;28;20265;-76
2022/05/01 12:03:04;;;;;;;21.67;11.80;;;16.90;58.90;;;;;;5018260;28;20411;-77
2022/05/01 12:05:31;;;;;;;21.00;12.77;;;17.20;57.60;;;;;;5013275;28;20424;-77
2022/05/01 12:07:59;;;;;;;19.03;10.77;;;17.30;56.60;;;;;;5016588;28;20467;-77
2022/05/01 12:10:26;;;;;;;23.87;12.43;;;17.60;56.60;;;;;;5029232;28;20472;-77
2022/05/01 12:12:52;;;;;;;19.03;11.10;;;17.40;56.00;;;;;;5020229;28;20417;-76
2022/05/01 12:15:18;;;;;;;17.93;11.03;;;17.20;57.00;;;;;;5015867;28;20463;-78
2022/05/01 12:17:44;;;;;;;20.00;12.23;;;17.00;57.60;;;;;;5018115;28;20478;-77
2022/05/01 12:20:11;;;;;;;20.70;10.63;;;17.00;58.00;;;;;;5012379;28;20580;-79
2022/05/01 12:22:37;;;;;;;21.80;11.87;;;17.10;57.60;;;;;;5019249;28;20430;-78
2022/05/01 12:25:10;;;;;;;18.20;11.10;;;17.10;57.70;;;;;;5011690;28;20456;-77
2022/05/01 12:27:45;;;;;;;20.30;11.83;;;17.10;57.40;;;;;;5011537;28;20479;-78
2022/05/01 12:30:13;;;;;;;21.47;12.37;;;17.10;58.10;;;;;;5019907;28;20459;-77
2022/05/01 12:32:52;;;;;;;26.10;13.00;;;17.10;58.50;;;;;;5014513;28;20527;-78
2022/05/01 12:35:18;;;;;;;20.00;12.23;;;16.90;58.40;;;;;;5006630;28;20460;-77
2022/05/01 12:37:44;;;;;;;24.07;13.53;;;16.70;58.90;;;;;;5011242;28;20425;-78
2022/05/01 12:40:12;;;;;;;18.83;11.90;;;16.80;58.70;;;;;;5021433;28;20207;-78
2022/05/01 12:45:44;;;;;;;22.13;13.47;;;17.70;56.50;;;;;;5011677;28;20988;-77
2022/05/01 12:48:13;;;;;;;22.43;12.50;;;18.00;55.30;;;;;;5020597;28;20412;-78
2022/05/01 12:50:40;;;;;;;22.50;12.33;;;18.20;55.60;;;;;;5017573;28;20449;-76
2022/05/01 12:53:27;;;;;;;20.70;11.40;;;18.40;54.50;;;;;;5016774;28;20993;-79
2022/05/01 12:55:53;;;;;;;19.80;11.90;;;18.90;53.40;;;;;;5015751;28;20476;-78
2022/05/01 12:58:29;;;;;;;20.53;11.97;;;19.20;52.50;;;;;;5017425;28;20800;-76
2022/05/01 13:00:56;;;;;;;23.83;12.53;;;19.30;51.80;;;;;;5018321;28;20440;-76
2022/05/01 13:03:37;;;;;;;19.30;11.33;;;19.40;50.60;;;;;;5015790;28;20799;-77